sensor_id;sensor_type;location;lat;lon;timestamp;P1;durP1;ratioP1;P2;durP2;ratioP2
14704;SDS011;7442;50.840;3.396;2022-11-20T00:02:05;12.05;;;9.93;;
14704;SDS011;7442;50.840;3.396;2022-11-20T00:04:35;12.33;;;10.72;;
14704;SDS011;7442;50.840;3.396;2022-11-20T00:07:05;15.32;;;10.50;;
14704;SDS011;7442;50.840;3.396;2022-11-20T00:09:40;14.58;;;10.90;;
14704;SDS011;7442;50.840;3.396;2022-11-20T00:12:10;13.15;;;10.65;;
14704;SDS011;7442;50.840;3.396;2022-11-20T00:14:47;14.73;;;10.03;;
14704;SDS011;7442;50.840;3.396;2022-11-20T00:17:17;11.97;;;10.35;;
14704;SDS011;7442;50.840;3.396;2022-11-20T00:19:46;15.53;;;10.55;;
14704;SDS011;7442;50.840;3.396;2022-11-20T00:22:17;12.68;;;10.80;;
14704;SDS011;7442;50.840;3.396;2022-11-20T00:24:47;13.15;;;10.72;;
14704;SDS011;7442;50.840;3.396;2022-11-20T00:27:17;12.00;;;10.28;;
14704;SDS011;7442;50.840;3.396;2022-11-20T00:29:48;12.60;;;10.23;;
14704;SDS011;7442;50.840;3.396;2022-11-20T00:32:18;15.45;;;10.88;;
14704;SDS011;7442;50.840;3.396;2022-11-20T00:34:48;12.55;;;9.98;;
14704;SDS011;7442;50.840;3.396;2022-11-20T00:37:18;13.75;;;10.75;;
14704;SDS011;7442;50.840;3.396;2022-11-20T00:39:48;12.33;;;11.03;;
14704;SDS011;7442;50.840;3.396;2022-11-20T00:42:18;13.95;;;11.55;;
14704;SDS011;7442;50.840;3.396;2022-11-20T00:44:49;15.90;;;11.43;;
14704;SDS011;7442;50.840;3.396;2022-11-20T00:47:19;14.13;;;10.72;;
14704;SDS011;7442;50.840;3.396;2022-11-20T00:49:49;12.60;;;10.85;;
14704;SDS011;7442;50.840;3.396;2022-11-20T00:52:19;13.38;;;10.70;;
14704;SDS011;7442;50.840;3.396;2022-11-20T00:54:49;13.85;;;10.40;;
14704;SDS011;7442;50.840;3.396;2022-11-20T00:57:19;12.37;;;10.28;;
14704;SDS011;7442;50.840;3.396;2022-11-20T00:59:49;11.45;;;10.25;;
14704;SDS011;7442;50.840;3.396;2022-11-20T01:02:19;12.10;;;10.58;;
14704;SDS011;7442;50.840;3.396;2022-11-20T01:04:49;14.80;;;11.05;;
14704;SDS011;7442;50.840;3.396;2022-11-20T01:07:19;15.95;;;10.78;;
14704;SDS011;7442;50.840;3.396;2022-11-20T01:09:49;12.28;;;10.90;;
14704;SDS011;7442;50.840;3.396;2022-11-20T01:12:19;13.78;;;11.53;;
14704;SDS011;7442;50.840;3.396;2022-11-20T01:14:49;13.98;;;11.28;;
14704;SDS011;7442;50.840;3.396;2022-11-20T01:17:19;12.58;;;10.65;;
14704;SDS011;7442;50.840;3.396;2022-11-20T01:19:49;15.08;;;11.53;;
14704;SDS011;7442;50.840;3.396;2022-11-20T01:22:19;13.28;;;10.88;;
14704;SDS011;7442;50.840;3.396;2022-11-20T01:24:51;11.75;;;10.00;;
14704;SDS011;7442;50.840;3.396;2022-11-20T01:27:23;11.15;;;9.83;;
14704;SDS011;7442;50.840;3.396;2022-11-20T01:29:59;13.62;;;10.63;;
14704;SDS011;7442;50.840;3.396;2022-11-20T01:32:30;13.60;;;10.65;;
14704;SDS011;7442;50.840;3.396;2022-11-20T01:35:00;13.15;;;10.98;;
14704;SDS011;7442;50.840;3.396;2022-11-20T01:37:30;12.10;;;10.30;;
14704;SDS011;7442;50.840;3.396;2022-11-20T01:40:00;13.58;;;11.38;;
14704;SDS011;7442;50.840;3.396;2022-11-20T01:42:32;12.68;;;10.70;;
14704;SDS011;7442;50.840;3.396;2022-11-20T01:48:22;14.73;;;11.97;;
14704;SDS011;7442;50.840;3.396;2022-11-20T01:50:54;14.03;;;11.35;;
14704;SDS011;7442;50.840;3.396;2022-11-20T01:53:28;12.37;;;10.32;;
14704;SDS011;7442;50.840;3.396;2022-11-20T01:56:00;12.78;;;10.68;;
14704;SDS011;7442;50.840;3.396;2022-11-20T01:58:33;12.68;;;10.93;;
14704;SDS011;7442;50.840;3.396;2022-11-20T02:01:05;12.03;;;10.72;;
14704;SDS011;7442;50.840;3.396;2022-11-20T02:03:35;12.78;;;10.85;;
14704;SDS011;7442;50.840;3.396;2022-11-20T02:09:17;14.38;;;11.25;;
14704;SDS011;7442;50.840;3.396;2022-11-20T02:11:47;12.35;;;10.15;;
14704;SDS011;7442;50.840;3.396;2022-11-20T02:14:19;11.25;;;9.95;;
14704;SDS011;7442;50.840;3.396;2022-11-20T02:16:50;13.13;;;10.68;;
14704;SDS011;7442;50.840;3.396;2022-11-20T02:19:28;12.58;;;10.72;;
14704;SDS011;7442;50.840;3.396;2022-11-20T02:22:02;13.48;;;11.25;;
14704;SDS011;7442;50.840;3.396;2022-11-20T02:24:45;14.47;;;10.90;;
14704;SDS011;7442;50.840;3.396;2022-11-20T02:27:18;12.75;;;10.82;;
14704;SDS011;7442;50.840;3.396;2022-11-20T02:30:02;13.55;;;11.38;;
14704;SDS011;7442;50.840;3.396;2022-11-20T02:32:36;12.95;;;11.10;;
14704;SDS011;7442;50.840;3.396;2022-11-20T02:35:08;14.43;;;11.53;;
14704;SDS011;7442;50.840;3.396;2022-11-20T02:37:40;12.37;;;11.03;;
14704;SDS011;7442;50.840;3.396;2022-11-20T02:40:10;12.75;;;10.70;;
14704;SDS011;7442;50.840;3.396;2022-11-20T02:42:41;12.05;;;10.78;;
14704;SDS011;7442;50.840;3.396;2022-11-20T02:45:11;13.50;;;11.18;;
14704;SDS011;7442;50.840;3.396;2022-11-20T02:47:48;11.10;;;9.80;;
14704;SDS011;7442;50.840;3.396;2022-11-20T02:50:18;12.88;;;10.98;;
14704;SDS011;7442;50.840;3.396;2022-11-20T02:52:48;14.00;;;11.15;;
14704;SDS011;7442;50.840;3.396;2022-11-20T02:55:18;12.30;;;10.58;;
14704;SDS011;7442;50.840;3.396;2022-11-20T02:57:48;12.28;;;10.88;;
14704;SDS011;7442;50.840;3.396;2022-11-20T03:00:18;13.30;;;11.40;;
14704;SDS011;7442;50.840;3.396;2022-11-20T03:02:48;11.30;;;10.18;;
14704;SDS011;7442;50.840;3.396;2022-11-20T03:05:19;13.03;;;11.63;;
14704;SDS011;7442;50.840;3.396;2022-11-20T03:07:49;11.75;;;10.55;;
14704;SDS011;7442;50.840;3.396;2022-11-20T03:10:19;13.20;;;11.30;;
14704;SDS011;7442;50.840;3.396;2022-11-20T03:12:52;13.08;;;11.10;;
14704;SDS011;7442;50.840;3.396;2022-11-20T03:15:25;12.88;;;10.43;;
14704;SDS011;7442;50.840;3.396;2022-11-20T03:17:55;12.93;;;10.93;;
14704;SDS011;7442;50.840;3.396;2022-11-20T03:20:27;12.37;;;10.58;;
14704;SDS011;7442;50.840;3.396;2022-11-20T03:22:58;15.15;;;10.90;;
14704;SDS011;7442;50.840;3.396;2022-11-20T03:25:29;12.03;;;10.60;;
14704;SDS011;7442;50.840;3.396;2022-11-20T03:27:59;12.40;;;11.03;;
14704;SDS011;7442;50.840;3.396;2022-11-20T03:30:29;12.75;;;10.63;;
14704;SDS011;7442;50.840;3.396;2022-11-20T03:32:59;11.97;;;10.38;;
14704;SDS011;7442;50.840;3.396;2022-11-20T03:35:29;12.37;;;10.60;;
14704;SDS011;7442;50.840;3.396;2022-11-20T03:37:59;12.25;;;10.95;;
14704;SDS011;7442;50.840;3.396;2022-11-20T03:40:29;11.90;;;10.63;;
14704;SDS011;7442;50.840;3.396;2022-11-20T03:42:59;11.48;;;10.08;;
14704;SDS011;7442;50.840;3.396;2022-11-20T03:45:36;11.73;;;9.85;;
14704;SDS011;7442;50.840;3.396;2022-11-20T03:48:06;13.05;;;10.72;;
14704;SDS011;7442;50.840;3.396;2022-11-20T03:50:36;11.90;;;10.53;;
14704;SDS011;7442;50.840;3.396;2022-11-20T03:53:07;14.58;;;11.15;;
14704;SDS011;7442;50.840;3.396;2022-11-20T03:55:37;12.03;;;10.72;;
14704;SDS011;7442;50.840;3.396;2022-11-20T03:58:07;13.15;;;11.33;;
14704;SDS011;7442;50.840;3.396;2022-11-20T04:00:45;11.73;;;10.30;;
14704;SDS011;7442;50.840;3.396;2022-11-20T04:03:15;12.28;;;10.35;;
14704;SDS011;7442;50.840;3.396;2022-11-20T04:05:45;11.18;;;10.00;;
14704;SDS011;7442;50.840;3.396;2022-11-20T04:08:15;11.45;;;10.05;;
14704;SDS011;7442;50.840;3.396;2022-11-20T04:10:45;13.15;;;10.15;;
14704;SDS011;7442;50.840;3.396;2022-11-20T04:13:15;11.33;;;10.13;;
14704;SDS011;7442;50.840;3.396;2022-11-20T04:15:45;13.53;;;9.93;;
14704;SDS011;7442;50.840;3.396;2022-11-20T04:18:15;11.70;;;10.32;;
14704;SDS011;7442;50.840;3.396;2022-11-20T04:20:45;14.15;;;10.95;;
14704;SDS011;7442;50.840;3.396;2022-11-20T04:23:15;11.25;;;9.90;;
14704;SDS011;7442;50.840;3.396;2022-11-20T04:25:45;11.53;;;9.93;;
14704;SDS011;7442;50.840;3.396;2022-11-20T04:28:15;11.00;;;9.80;;
14704;SDS011;7442;50.840;3.396;2022-11-20T04:30:53;12.53;;;10.82;;
14704;SDS011;7442;50.840;3.396;2022-11-20T04:33:23;12.47;;;10.53;;
14704;SDS011;7442;50.840;3.396;2022-11-20T04:35:53;13.85;;;11.25;;
14704;SDS011;7442;50.840;3.396;2022-11-20T04:38:23;13.03;;;10.55;;
14704;SDS011;7442;50.840;3.396;2022-11-20T04:40:55;11.93;;;10.63;;
14704;SDS011;7442;50.840;3.396;2022-11-20T04:43:28;12.15;;;10.20;;
14704;SDS011;7442;50.840;3.396;2022-11-20T04:45:59;11.90;;;10.23;;
14704;SDS011;7442;50.840;3.396;2022-11-20T04:48:30;12.50;;;10.43;;
14704;SDS011;7442;50.840;3.396;2022-11-20T04:51:02;11.33;;;10.03;;
14704;SDS011;7442;50.840;3.396;2022-11-20T04:53:32;12.07;;;9.98;;
14704;SDS011;7442;50.840;3.396;2022-11-20T04:56:03;12.37;;;10.48;;
14704;SDS011;7442;50.840;3.396;2022-11-20T04:58:35;12.07;;;10.43;;
14704;SDS011;7442;50.840;3.396;2022-11-20T05:01:07;12.28;;;10.35;;
14704;SDS011;7442;50.840;3.396;2022-11-20T05:03:40;12.25;;;10.15;;
14704;SDS011;7442;50.840;3.396;2022-11-20T05:06:12;10.90;;;9.58;;
14704;SDS011;7442;50.840;3.396;2022-11-20T05:08:43;11.65;;;9.63;;
14704;SDS011;7442;50.840;3.396;2022-11-20T05:11:14;11.03;;;9.88;;
14704;SDS011;7442;50.840;3.396;2022-11-20T05:13:47;11.55;;;10.03;;
14704;SDS011;7442;50.840;3.396;2022-11-20T05:16:18;11.88;;;10.58;;
14704;SDS011;7442;50.840;3.396;2022-11-20T05:18:51;10.98;;;9.78;;
14704;SDS011;7442;50.840;3.396;2022-11-20T05:21:22;12.60;;;10.75;;
14704;SDS011;7442;50.840;3.396;2022-11-20T05:23:52;10.65;;;9.10;;
14704;SDS011;7442;50.840;3.396;2022-11-20T05:26:22;11.30;;;10.00;;
14704;SDS011;7442;50.840;3.396;2022-11-20T05:28:52;11.68;;;10.18;;
14704;SDS011;7442;50.840;3.396;2022-11-20T05:31:29;11.35;;;9.78;;
14704;SDS011;7442;50.840;3.396;2022-11-20T05:33:59;11.55;;;9.58;;
14704;SDS011;7442;50.840;3.396;2022-11-20T05:36:29;13.58;;;9.90;;
14704;SDS011;7442;50.840;3.396;2022-11-20T05:39:01;11.88;;;10.03;;
14704;SDS011;7442;50.840;3.396;2022-11-20T05:41:34;12.58;;;9.93;;
14704;SDS011;7442;50.840;3.396;2022-11-20T05:44:04;11.50;;;9.70;;
14704;SDS011;7442;50.840;3.396;2022-11-20T05:46:41;10.35;;;9.25;;
14704;SDS011;7442;50.840;3.396;2022-11-20T05:49:17;10.78;;;9.55;;
14704;SDS011;7442;50.840;3.396;2022-11-20T05:51:47;12.00;;;10.15;;
14704;SDS011;7442;50.840;3.396;2022-11-20T05:54:17;11.12;;;9.50;;
14704;SDS011;7442;50.840;3.396;2022-11-20T05:56:49;12.13;;;9.55;;
14704;SDS011;7442;50.840;3.396;2022-11-20T05:59:20;11.20;;;9.75;;
14704;SDS011;7442;50.840;3.396;2022-11-20T06:01:57;12.15;;;9.85;;
14704;SDS011;7442;50.840;3.396;2022-11-20T06:04:27;11.70;;;9.83;;
14704;SDS011;7442;50.840;3.396;2022-11-20T06:06:57;11.85;;;10.00;;
14704;SDS011;7442;50.840;3.396;2022-11-20T06:09:31;10.60;;;9.43;;
14704;SDS011;7442;50.840;3.396;2022-11-20T06:12:01;12.13;;;9.63;;
14704;SDS011;7442;50.840;3.396;2022-11-20T06:14:31;11.18;;;9.80;;
14704;SDS011;7442;50.840;3.396;2022-11-20T06:17:02;12.55;;;9.45;;
14704;SDS011;7442;50.840;3.396;2022-11-20T06:19:33;11.48;;;9.90;;
14704;SDS011;7442;50.840;3.396;2022-11-20T06:22:03;12.35;;;10.13;;
14704;SDS011;7442;50.840;3.396;2022-11-20T06:24:33;12.23;;;10.32;;
14704;SDS011;7442;50.840;3.396;2022-11-20T06:27:04;12.85;;;9.50;;
14704;SDS011;7442;50.840;3.396;2022-11-20T06:29:34;11.60;;;10.38;;
14704;SDS011;7442;50.840;3.396;2022-11-20T06:32:04;10.75;;;9.63;;
14704;SDS011;7442;50.840;3.396;2022-11-20T06:34:35;12.10;;;9.98;;
14704;SDS011;7442;50.840;3.396;2022-11-20T06:37:09;12.98;;;10.20;;
14704;SDS011;7442;50.840;3.396;2022-11-20T06:39:39;10.98;;;9.53;;
14704;SDS011;7442;50.840;3.396;2022-11-20T06:42:09;11.68;;;9.50;;
14704;SDS011;7442;50.840;3.396;2022-11-20T06:44:39;10.95;;;9.45;;
14704;SDS011;7442;50.840;3.396;2022-11-20T06:47:09;10.90;;;8.90;;
14704;SDS011;7442;50.840;3.396;2022-11-20T06:49:39;12.40;;;9.85;;
14704;SDS011;7442;50.840;3.396;2022-11-20T06:52:09;12.30;;;9.98;;
14704;SDS011;7442;50.840;3.396;2022-11-20T06:54:39;11.08;;;9.53;;
14704;SDS011;7442;50.840;3.396;2022-11-20T06:57:09;12.05;;;9.68;;
14704;SDS011;7442;50.840;3.396;2022-11-20T06:59:39;12.73;;;9.98;;
14704;SDS011;7442;50.840;3.396;2022-11-20T07:02:10;12.73;;;9.83;;
14704;SDS011;7442;50.840;3.396;2022-11-20T07:04:42;12.05;;;10.05;;
14704;SDS011;7442;50.840;3.396;2022-11-20T07:07:12;13.15;;;9.88;;
14704;SDS011;7442;50.840;3.396;2022-11-20T07:09:48;12.10;;;9.48;;
14704;SDS011;7442;50.840;3.396;2022-11-20T07:12:18;11.48;;;9.80;;
14704;SDS011;7442;50.840;3.396;2022-11-20T07:14:48;11.35;;;9.43;;
14704;SDS011;7442;50.840;3.396;2022-11-20T07:17:18;11.80;;;9.40;;
14704;SDS011;7442;50.840;3.396;2022-11-20T07:19:48;10.55;;;9.45;;
14704;SDS011;7442;50.840;3.396;2022-11-20T07:22:18;11.95;;;9.50;;
14704;SDS011;7442;50.840;3.396;2022-11-20T07:24:49;11.25;;;9.25;;
14704;SDS011;7442;50.840;3.396;2022-11-20T07:27:19;11.38;;;9.73;;
14704;SDS011;7442;50.840;3.396;2022-11-20T07:29:49;10.93;;;9.23;;
14704;SDS011;7442;50.840;3.396;2022-11-20T07:32:19;12.33;;;9.88;;
14704;SDS011;7442;50.840;3.396;2022-11-20T07:34:49;11.90;;;9.53;;
14704;SDS011;7442;50.840;3.396;2022-11-20T07:37:20;12.47;;;9.55;;
14704;SDS011;7442;50.840;3.396;2022-11-20T07:39:50;12.10;;;9.60;;
14704;SDS011;7442;50.840;3.396;2022-11-20T07:42:20;12.90;;;9.93;;
14704;SDS011;7442;50.840;3.396;2022-11-20T07:44:50;12.35;;;10.00;;
14704;SDS011;7442;50.840;3.396;2022-11-20T07:47:20;11.63;;;9.28;;
14704;SDS011;7442;50.840;3.396;2022-11-20T07:49:51;13.03;;;10.13;;
14704;SDS011;7442;50.840;3.396;2022-11-20T07:52:23;12.70;;;9.68;;
14704;SDS011;7442;50.840;3.396;2022-11-20T07:54:53;12.98;;;10.03;;
14704;SDS011;7442;50.840;3.396;2022-11-20T07:57:23;13.68;;;9.50;;
14704;SDS011;7442;50.840;3.396;2022-11-20T07:59:53;13.15;;;9.78;;
14704;SDS011;7442;50.840;3.396;2022-11-20T08:02:23;11.90;;;9.68;;
14704;SDS011;7442;50.840;3.396;2022-11-20T08:04:53;11.93;;;9.78;;
14704;SDS011;7442;50.840;3.396;2022-11-20T08:07:23;13.28;;;10.43;;
14704;SDS011;7442;50.840;3.396;2022-11-20T08:09:53;10.68;;;9.50;;
14704;SDS011;7442;50.840;3.396;2022-11-20T08:12:23;12.13;;;9.55;;
14704;SDS011;7442;50.840;3.396;2022-11-20T08:15:11;11.43;;;9.68;;
14704;SDS011;7442;50.840;3.396;2022-11-20T08:17:41;11.93;;;9.65;;
14704;SDS011;7442;50.840;3.396;2022-11-20T08:20:11;11.70;;;9.50;;
14704;SDS011;7442;50.840;3.396;2022-11-20T08:22:41;11.83;;;9.53;;
14704;SDS011;7442;50.840;3.396;2022-11-20T08:25:12;10.40;;;9.15;;
14704;SDS011;7442;50.840;3.396;2022-11-20T08:27:49;10.78;;;9.13;;
14704;SDS011;7442;50.840;3.396;2022-11-20T08:30:21;13.60;;;10.08;;
14704;SDS011;7442;50.840;3.396;2022-11-20T08:32:51;12.35;;;9.45;;
14704;SDS011;7442;50.840;3.396;2022-11-20T08:35:22;9.83;;;8.70;;
14704;SDS011;7442;50.840;3.396;2022-11-20T08:37:52;12.98;;;9.88;;
14704;SDS011;7442;50.840;3.396;2022-11-20T08:40:22;12.68;;;9.30;;
14704;SDS011;7442;50.840;3.396;2022-11-20T08:42:52;13.18;;;9.28;;
14704;SDS011;7442;50.840;3.396;2022-11-20T08:45:22;12.58;;;9.63;;
14704;SDS011;7442;50.840;3.396;2022-11-20T08:47:52;18.35;;;11.33;;
14704;SDS011;7442;50.840;3.396;2022-11-20T08:50:22;13.95;;;10.65;;
14704;SDS011;7442;50.840;3.396;2022-11-20T08:52:52;17.23;;;10.60;;
14704;SDS011;7442;50.840;3.396;2022-11-20T08:55:22;17.12;;;10.95;;
14704;SDS011;7442;50.840;3.396;2022-11-20T08:57:52;15.08;;;10.95;;
14704;SDS011;7442;50.840;3.396;2022-11-20T09:00:22;12.20;;;10.43;;
14704;SDS011;7442;50.840;3.396;2022-11-20T09:02:53;13.72;;;9.88;;
14704;SDS011;7442;50.840;3.396;2022-11-20T09:05:23;17.12;;;11.80;;
14704;SDS011;7442;50.840;3.396;2022-11-20T09:07:56;16.57;;;10.90;;
14704;SDS011;7442;50.840;3.396;2022-11-20T09:10:34;15.90;;;11.00;;
14704;SDS011;7442;50.840;3.396;2022-11-20T09:13:05;15.70;;;10.93;;
14704;SDS011;7442;50.840;3.396;2022-11-20T09:15:39;14.10;;;10.30;;
14704;SDS011;7442;50.840;3.396;2022-11-20T09:18:09;16.15;;;11.18;;
14704;SDS011;7442;50.840;3.396;2022-11-20T09:20:39;14.30;;;10.95;;
14704;SDS011;7442;50.840;3.396;2022-11-20T09:23:09;15.03;;;11.08;;
14704;SDS011;7442;50.840;3.396;2022-11-20T09:25:39;14.07;;;11.18;;
14704;SDS011;7442;50.840;3.396;2022-11-20T09:28:09;13.53;;;10.98;;
14704;SDS011;7442;50.840;3.396;2022-11-20T09:30:39;16.35;;;11.45;;
14704;SDS011;7442;50.840;3.396;2022-11-20T09:33:09;14.25;;;10.40;;
14704;SDS011;7442;50.840;3.396;2022-11-20T09:35:39;12.70;;;10.38;;
14704;SDS011;7442;50.840;3.396;2022-11-20T09:38:11;14.75;;;10.00;;
14704;SDS011;7442;50.840;3.396;2022-11-20T09:41:00;12.43;;;9.45;;
14704;SDS011;7442;50.840;3.396;2022-11-20T09:43:51;13.95;;;9.43;;
14704;SDS011;7442;50.840;3.396;2022-11-20T09:46:43;14.87;;;10.18;;
14704;SDS011;7442;50.840;3.396;2022-11-20T09:49:29;12.30;;;9.80;;
14704;SDS011;7442;50.840;3.396;2022-11-20T09:51:59;15.00;;;9.38;;
14704;SDS011;7442;50.840;3.396;2022-11-20T09:54:31;11.75;;;9.30;;
14704;SDS011;7442;50.840;3.396;2022-11-20T09:57:14;13.98;;;8.90;;
14704;SDS011;7442;50.840;3.396;2022-11-20T09:59:50;13.13;;;9.13;;
14704;SDS011;7442;50.840;3.396;2022-11-20T10:02:45;13.05;;;8.33;;
14704;SDS011;7442;50.840;3.396;2022-11-20T10:05:27;11.18;;;8.50;;
14704;SDS011;7442;50.840;3.396;2022-11-20T10:10:49;17.57;;;9.03;;
14704;SDS011;7442;50.840;3.396;2022-11-20T10:13:24;11.83;;;8.43;;
14704;SDS011;7442;50.840;3.396;2022-11-20T10:18:48;11.30;;;8.03;;
14704;SDS011;7442;50.840;3.396;2022-11-20T10:29:47;10.23;;;6.97;;
14704;SDS011;7442;50.840;3.396;2022-11-20T10:32:20;11.68;;;7.40;;
14704;SDS011;7442;50.840;3.396;2022-11-20T10:34:57;10.30;;;6.92;;
14704;SDS011;7442;50.840;3.396;2022-11-20T10:37:29;9.58;;;7.08;;
14704;SDS011;7442;50.840;3.396;2022-11-20T10:42:55;11.57;;;6.85;;
14704;SDS011;7442;50.840;3.396;2022-11-20T10:48:16;10.55;;;6.50;;
14704;SDS011;7442;50.840;3.396;2022-11-20T10:54:05;9.38;;;6.25;;
14704;SDS011;7442;50.840;3.396;2022-11-20T10:56:40;10.58;;;6.58;;
14704;SDS011;7442;50.840;3.396;2022-11-20T11:02:21;10.45;;;5.83;;
14704;SDS011;7442;50.840;3.396;2022-11-20T11:04:53;10.32;;;6.75;;
14704;SDS011;7442;50.840;3.396;2022-11-20T11:07:25;10.75;;;6.42;;
14704;SDS011;7442;50.840;3.396;2022-11-20T11:10:13;9.20;;;5.83;;
14704;SDS011;7442;50.840;3.396;2022-11-20T11:12:36;10.68;;;5.90;;
14704;SDS011;7442;50.840;3.396;2022-11-20T11:15:11;8.10;;;5.37;;
14704;SDS011;7442;50.840;3.396;2022-11-20T11:17:45;12.10;;;6.10;;
14704;SDS011;7442;50.840;3.396;2022-11-20T11:20:18;9.45;;;5.45;;
14704;SDS011;7442;50.840;3.396;2022-11-20T11:22:51;7.85;;;5.10;;
14704;SDS011;7442;50.840;3.396;2022-11-20T11:25:33;9.55;;;5.40;;
14704;SDS011;7442;50.840;3.396;2022-11-20T11:30:56;9.53;;;5.60;;
14704;SDS011;7442;50.840;3.396;2022-11-20T11:33:28;10.85;;;5.47;;
14704;SDS011;7442;50.840;3.396;2022-11-20T11:36:00;8.38;;;5.37;;
14704;SDS011;7442;50.840;3.396;2022-11-20T11:38:39;9.48;;;5.15;;
14704;SDS011;7442;50.840;3.396;2022-11-20T11:41:19;9.50;;;5.08;;
14704;SDS011;7442;50.840;3.396;2022-11-20T11:43:51;8.60;;;4.80;;
14704;SDS011;7442;50.840;3.396;2022-11-20T11:47:00;9.05;;;5.10;;
14704;SDS011;7442;50.840;3.396;2022-11-20T11:49:21;9.53;;;4.85;;
14704;SDS011;7442;50.840;3.396;2022-11-20T11:55:01;11.10;;;4.87;;
14704;SDS011;7442;50.840;3.396;2022-11-20T11:57:42;7.85;;;4.30;;
14704;SDS011;7442;50.840;3.396;2022-11-20T12:00:19;7.42;;;4.85;;
14704;SDS011;7442;50.840;3.396;2022-11-20T12:05:42;7.50;;;4.47;;
14704;SDS011;7442;50.840;3.396;2022-11-20T12:11:11;8.43;;;4.58;;
14704;SDS011;7442;50.840;3.396;2022-11-20T12:13:44;6.50;;;4.40;;
14704;SDS011;7442;50.840;3.396;2022-11-20T12:16:24;6.78;;;4.20;;
14704;SDS011;7442;50.840;3.396;2022-11-20T12:18:54;7.60;;;4.25;;
14704;SDS011;7442;50.840;3.396;2022-11-20T12:21:38;7.15;;;4.10;;
14704;SDS011;7442;50.840;3.396;2022-11-20T12:35:25;6.67;;;3.80;;
14704;SDS011;7442;50.840;3.396;2022-11-20T12:50:32;5.28;;;3.40;;
14704;SDS011;7442;50.840;3.396;2022-11-20T12:53:25;5.78;;;3.47;;
14704;SDS011;7442;50.840;3.396;2022-11-20T12:56:12;4.45;;;3.10;;
14704;SDS011;7442;50.840;3.396;2022-11-20T13:01:55;4.00;;;3.20;;
14704;SDS011;7442;50.840;3.396;2022-11-20T13:07:13;5.78;;;2.77;;
14704;SDS011;7442;50.840;3.396;2022-11-20T13:09:42;5.62;;;2.45;;
14704;SDS011;7442;50.840;3.396;2022-11-20T13:15:02;4.10;;;2.98;;
14704;SDS011;7442;50.840;3.396;2022-11-20T13:17:37;3.70;;;2.87;;
14704;SDS011;7442;50.840;3.396;2022-11-20T13:20:16;5.33;;;2.90;;
14704;SDS011;7442;50.840;3.396;2022-11-20T13:22:54;3.80;;;2.60;;
14704;SDS011;7442;50.840;3.396;2022-11-20T13:25:32;4.22;;;2.90;;
14704;SDS011;7442;50.840;3.396;2022-11-20T13:30:54;3.70;;;2.67;;
14704;SDS011;7442;50.840;3.396;2022-11-20T13:36:03;4.08;;;2.62;;
14704;SDS011;7442;50.840;3.396;2022-11-20T13:38:40;3.67;;;2.47;;
14704;SDS011;7442;50.840;3.396;2022-11-20T13:41:25;5.30;;;3.45;;
14704;SDS011;7442;50.840;3.396;2022-11-20T13:43:58;2.87;;;2.02;;
14704;SDS011;7442;50.840;3.396;2022-11-20T13:46:37;2.85;;;2.30;;
14704;SDS011;7442;50.840;3.396;2022-11-20T13:49:23;3.52;;;2.60;;
14704;SDS011;7442;50.840;3.396;2022-11-20T13:51:48;2.45;;;2.25;;
14704;SDS011;7442;50.840;3.396;2022-11-20T14:00:17;3.10;;;2.20;;
14704;SDS011;7442;50.840;3.396;2022-11-20T14:03:16;4.03;;;2.45;;
14704;SDS011;7442;50.840;3.396;2022-11-20T14:05:28;3.12;;;2.42;;
14704;SDS011;7442;50.840;3.396;2022-11-20T14:08:02;3.30;;;2.22;;
14704;SDS011;7442;50.840;3.396;2022-11-20T14:10:41;3.15;;;2.05;;
14704;SDS011;7442;50.840;3.396;2022-11-20T14:13:18;3.77;;;2.00;;
14704;SDS011;7442;50.840;3.396;2022-11-20T14:15:56;2.92;;;2.15;;
14704;SDS011;7442;50.840;3.396;2022-11-20T14:18:22;3.22;;;2.20;;
14704;SDS011;7442;50.840;3.396;2022-11-20T14:20:54;2.98;;;2.15;;
14704;SDS011;7442;50.840;3.396;2022-11-20T14:23:28;4.87;;;2.17;;
14704;SDS011;7442;50.840;3.396;2022-11-20T14:25:58;3.17;;;1.92;;
14704;SDS011;7442;50.840;3.396;2022-11-20T14:28:29;3.67;;;2.00;;
14704;SDS011;7442;50.840;3.396;2022-11-20T14:31:00;2.50;;;1.87;;
14704;SDS011;7442;50.840;3.396;2022-11-20T14:33:31;3.05;;;2.00;;
14704;SDS011;7442;50.840;3.396;2022-11-20T14:36:02;2.30;;;1.90;;
14704;SDS011;7442;50.840;3.396;2022-11-20T14:38:32;2.50;;;1.82;;
14704;SDS011;7442;50.840;3.396;2022-11-20T14:41:06;3.60;;;1.92;;
14704;SDS011;7442;50.840;3.396;2022-11-20T14:46:08;2.15;;;1.85;;
14704;SDS011;7442;50.840;3.396;2022-11-20T14:48:41;2.62;;;2.00;;
14704;SDS011;7442;50.840;3.396;2022-11-20T14:51:32;2.55;;;1.80;;
14704;SDS011;7442;50.840;3.396;2022-11-20T14:54:13;2.62;;;1.90;;
14704;SDS011;7442;50.840;3.396;2022-11-20T14:59:29;4.28;;;1.70;;
14704;SDS011;7442;50.840;3.396;2022-11-20T15:02:02;3.40;;;1.92;;
14704;SDS011;7442;50.840;3.396;2022-11-20T15:04:44;2.35;;;1.72;;
14704;SDS011;7442;50.840;3.396;2022-11-20T15:07:29;2.40;;;2.00;;
14704;SDS011;7442;50.840;3.396;2022-11-20T15:10:25;3.12;;;1.80;;
14704;SDS011;7442;50.840;3.396;2022-11-20T15:12:46;1.87;;;1.65;;
14704;SDS011;7442;50.840;3.396;2022-11-20T15:15:17;3.37;;;2.05;;
14704;SDS011;7442;50.840;3.396;2022-11-20T15:17:55;1.92;;;1.60;;
14704;SDS011;7442;50.840;3.396;2022-11-20T15:20:26;3.22;;;1.98;;
14704;SDS011;7442;50.840;3.396;2022-11-20T15:22:59;2.33;;;1.70;;
14704;SDS011;7442;50.840;3.396;2022-11-20T15:25:29;2.83;;;1.90;;
14704;SDS011;7442;50.840;3.396;2022-11-20T15:27:59;2.25;;;1.57;;
14704;SDS011;7442;50.840;3.396;2022-11-20T15:30:29;2.08;;;1.70;;
14704;SDS011;7442;50.840;3.396;2022-11-20T15:32:59;4.80;;;2.05;;
14704;SDS011;7442;50.840;3.396;2022-11-20T15:35:29;2.83;;;1.95;;
14704;SDS011;7442;50.840;3.396;2022-11-20T15:37:59;2.40;;;1.80;;
14704;SDS011;7442;50.840;3.396;2022-11-20T15:40:29;3.08;;;1.70;;
14704;SDS011;7442;50.840;3.396;2022-11-20T15:43:00;2.85;;;1.80;;
14704;SDS011;7442;50.840;3.396;2022-11-20T15:48:18;2.62;;;2.05;;
14704;SDS011;7442;50.840;3.396;2022-11-20T15:50:54;2.70;;;1.65;;
14704;SDS011;7442;50.840;3.396;2022-11-20T15:53:34;4.78;;;1.77;;
14704;SDS011;7442;50.840;3.396;2022-11-20T15:56:05;3.17;;;1.77;;
14704;SDS011;7442;50.840;3.396;2022-11-20T15:58:35;3.02;;;1.70;;
14704;SDS011;7442;50.840;3.396;2022-11-20T16:01:05;3.90;;;1.57;;
14704;SDS011;7442;50.840;3.396;2022-11-20T16:03:40;2.50;;;1.82;;
14704;SDS011;7442;50.840;3.396;2022-11-20T16:06:14;2.85;;;1.80;;
14704;SDS011;7442;50.840;3.396;2022-11-20T16:08:44;1.85;;;1.40;;
14704;SDS011;7442;50.840;3.396;2022-11-20T16:11:15;7.20;;;1.90;;
14704;SDS011;7442;50.840;3.396;2022-11-20T16:13:46;3.17;;;1.70;;
14704;SDS011;7442;50.840;3.396;2022-11-20T16:16:35;5.45;;;1.92;;
14704;SDS011;7442;50.840;3.396;2022-11-20T16:19:13;3.65;;;2.00;;
14704;SDS011;7442;50.840;3.396;2022-11-20T16:21:43;5.75;;;1.85;;
14704;SDS011;7442;50.840;3.396;2022-11-20T16:24:13;11.48;;;2.12;;
14704;SDS011;7442;50.840;3.396;2022-11-20T16:26:45;3.95;;;2.02;;
14704;SDS011;7442;50.840;3.396;2022-11-20T16:29:14;7.70;;;1.87;;
14704;SDS011;7442;50.840;3.396;2022-11-20T16:31:45;4.33;;;1.87;;
14704;SDS011;7442;50.840;3.396;2022-11-20T16:34:16;3.45;;;2.10;;
14704;SDS011;7442;50.840;3.396;2022-11-20T16:36:48;3.80;;;1.67;;
14704;SDS011;7442;50.840;3.396;2022-11-20T16:39:18;12.23;;;5.60;;
14704;SDS011;7442;50.840;3.396;2022-11-20T16:41:48;8.33;;;3.27;;
14704;SDS011;7442;50.840;3.396;2022-11-20T16:44:25;7.83;;;3.40;;
14704;SDS011;7442;50.840;3.396;2022-11-20T16:46:55;9.13;;;3.25;;
14704;SDS011;7442;50.840;3.396;2022-11-20T16:49:25;7.17;;;2.90;;
14704;SDS011;7442;50.840;3.396;2022-11-20T16:51:55;11.90;;;3.30;;
14704;SDS011;7442;50.840;3.396;2022-11-20T16:54:26;15.10;;;3.10;;